Time;durP1;ratioP1;P1;durP2;ratioP2;P2;SDS_P1;SDS_P2;PMS_P1;PMS_P2;Temp;Humidity;BMP_temperature;BMP_pressure;BME280_temperature;BME280_humidity;BME280_pressure;Samples;Min_cycle;Max_cycle;Signal;HPM_P1;HPM_P2
2022/06/03 00:01:41;;;;;;;7.50;6.78;;;;;;;16.78;100.00;100015.73;1656195;86;23034;-85
2022/06/03 00:04:33;;;;;;;8.58;7.28;;;;;;;16.76;100.00;100023.34;1654343;86;21094;-77
2022/06/03 00:07:14;;;;;;;;;;;;;;;16.70;100.00;100025.00;1669418;84;20953;-74
2022/06/03 00:10:12;;;;;;;11.38;7.50;;;;;;;16.67;100.00;100037.80;1663771;86;20166;-80
2022/06/03 00:13:18;;;;;;;9.83;6.72;;;;;;;16.62;100.00;100027.78;1662282;85;21561;-79
2022/06/03 00:16:22;;;;;;;9.68;8.78;;;;;;;16.60;100.00;100042.72;1675856;83;21245;-78
2022/06/03 00:19:03;;;;;;;;;;;;;;;16.54;100.00;100050.89;1661221;85;21027;-80
2022/06/03 00:21:41;;;;;;;9.28;8.35;;;;;;;16.52;100.00;100048.98;1657371;86;20160;-88
2022/06/03 00:24:20;;;;;;;11.22;8.75;;;;;;;16.50;100.00;100049.80;1655778;86;21704;-79
2022/06/03 00:27:06;;;;;;;11.97;9.43;;;;;;;16.47;100.00;100049.02;1651320;86;21620;-71
2022/06/03 00:30:18;;;;;;;9.95;8.80;;;;;;;16.43;100.00;100060.72;1625962;86;21182;-72
2022/06/03 00:33:17;;;;;;;9.68;8.58;;;;;;;16.38;100.00;100058.84;1664503;85;21038;-74
2022/06/03 00:36:20;;;;;;;12.78;10.13;;;;;;;16.32;100.00;100058.59;1678167;85;20977;-73
2022/06/03 00:39:04;;;;;;;11.03;9.75;;;;;;;16.28;100.00;100058.88;1678560;85;21038;-74
2022/06/03 00:41:39;;;;;;;11.63;9.03;;;;;;;16.26;100.00;100054.27;1680512;85;21108;-79
2022/06/03 00:44:37;;;;;;;10.05;8.95;;;;;;;16.23;100.00;100060.80;1677142;85;21676;-79
2022/06/03 00:47:43;;;;;;;13.18;9.45;;;;;;;16.20;100.00;100064.08;1643046;86;21017;-77
2022/06/03 00:50:42;;;;;;;9.63;8.73;;;;;;;16.18;100.00;100071.67;1631055;86;21526;-79
2022/06/03 00:53:51;;;;;;;13.62;9.85;;;;;;;16.16;100.00;100061.12;1646214;86;21012;-77
2022/06/03 00:56:40;;;;;;;9.78;8.88;;;;;;;16.12;100.00;100062.73;1651344;86;21100;-77
2022/06/03 00:59:34;;;;;;;10.53;9.10;;;;;;;16.09;100.00;100079.05;1667245;84;21061;-79
2022/06/03 01:02:27;;;;;;;12.80;10.10;;;;;;;16.07;100.00;100087.17;1650580;84;21064;-76
2022/06/03 01:05:12;;;;;;;9.70;8.70;;;;;;;16.06;100.00;100076.08;1681116;85;20938;-75
2022/06/03 01:07:53;;;;;;;9.53;8.65;;;;;;;16.05;100.00;100093.44;1674999;85;20963;-78
2022/06/03 01:10:37;;;;;;;11.08;9.18;;;;;;;16.02;100.00;100071.72;1660829;86;21540;-77
2022/06/03 01:13:57;;;;;;;11.12;8.08;;;;;;;16.02;100.00;100089.90;1653305;86;21963;-79
2022/06/03 01:16:54;;;;;;;11.55;9.10;;;;;;;15.99;100.00;100072.28;1647892;85;20964;-78
2022/06/03 01:19:41;;;;;;;10.10;9.18;;;;;;;15.97;100.00;100086.66;1632612;87;21072;-77
2022/06/03 01:22:16;;;;;;;9.60;8.70;;;;;;;15.95;100.00;100082.07;1605987;88;21593;-76
2022/06/03 01:24:59;;;;;;;11.95;10.68;;;;;;;15.93;100.00;100100.51;1645387;85;21055;-77
2022/06/03 01:27:53;;;;;;;10.98;9.40;;;;;;;15.93;100.00;100094.27;1616814;85;21162;-81
2022/06/03 01:30:39;;;;;;;10.98;9.93;;;;;;;15.91;100.00;100100.53;1646481;85;20947;-78
2022/06/03 01:33:14;;;;;;;10.68;9.60;;;;;;;15.88;100.00;100116.80;1651485;85;21588;-75
2022/06/03 01:36:13;;;;;;;11.50;10.40;;;;;;;15.88;100.00;100103.77;1654895;86;21070;-79
2022/06/03 01:38:58;;;;;;;13.10;10.55;;;;;;;15.86;100.00;100125.77;1638710;87;21043;-80
2022/06/03 01:41:45;;;;;;;10.75;9.78;;;;;;;15.84;100.00;100123.05;1642798;86;21112;-79
2022/06/03 01:44:26;;;;;;;11.95;10.85;;;;;;;15.80;100.00;100111.13;1626926;86;21055;-77
2022/06/03 01:47:23;;;;;;;12.78;10.70;;;;;;;15.79;100.00;100129.29;1645105;87;21164;-79
2022/06/03 01:50:38;;;;;;;10.70;9.70;;;;;;;15.76;100.00;100129.03;1658511;86;21004;-78
2022/06/03 01:53:52;;;;;;;11.57;10.58;;;;;;;15.73;100.00;100125.52;1625817;87;21104;-83
2022/06/03 01:56:40;;;;;;;9.98;9.03;;;;;;;15.69;100.00;100139.61;1642442;86;21163;-82
2022/06/03 01:59:46;;;;;;;11.50;10.48;;;;;;;15.69;100.00;100135.53;1629614;86;21196;-81
2022/06/03 02:02:44;;;;;;;11.83;10.63;;;;;;;15.67;100.00;100153.18;1665561;84;21120;-79
2022/06/03 02:05:28;;;;;;;11.30;10.18;;;;;;;15.65;100.00;100147.20;1701256;84;20992;-81
2022/06/03 02:08:54;;;;;;;15.28;11.55;;;;;;;15.63;100.00;100152.89;1701183;84;21080;-76
2022/06/03 02:11:49;;;;;;;11.60;10.60;;;;;;;15.64;100.00;100145.03;1700878;82;21341;-79
2022/06/03 02:14:39;;;;;;;11.70;10.70;;;;;;;15.62;100.00;100149.93;1663831;84;21032;-82
2022/06/03 02:17:19;;;;;;;10.93;9.95;;;;;;;15.60;100.00;100172.42;1707219;83;21013;-75
2022/06/03 02:20:26;;;;;;;11.30;10.30;;;;;;;15.56;100.00;100167.27;1710798;83;20980;-82
2022/06/03 02:23:24;;;;;;;12.60;10.15;;;;;;;15.54;100.00;100168.08;1708511;83;21574;-81
2022/06/03 02:26:38;;;;;;;11.30;9.90;;;;;;;15.53;100.00;100173.25;1714267;83;21057;-85
2022/06/03 02:32:49;;;;;;;12.30;11.15;;;;;;;15.49;100.00;100183.52;1675931;85;20980;-84
2022/06/03 02:35:52;;;;;;;11.60;10.60;;;;;;;15.41;100.00;100169.94;1586002;88;21115;-82
2022/06/03 02:38:57;;;;;;;10.90;10.00;;;;;;;15.40;100.00;100198.66;1675738;85;21021;-77
2022/06/03 02:42:06;;;;;;;11.30;10.20;;;;;;;15.37;100.00;100212.23;1636781;86;21198;-77
2022/06/03 02:45:06;;;;;;;11.12;10.20;;;;;;;15.37;100.00;100187.02;1659937;86;21039;-78
2022/06/03 02:48:11;;;;;;;10.82;9.73;;;;;;;15.36;100.00;100209.77;1649902;85;21201;-78
2022/06/03 02:51:03;;;;;;;11.00;10.00;;;;;;;15.37;100.00;100195.96;1650193;85;21047;-79
2022/06/03 02:54:10;;;;;;;11.55;10.18;;;;;;;15.39;100.00;100217.39;1656074;85;21542;-82
2022/06/03 02:57:05;;;;;;;10.13;9.30;;;;;;;15.38;100.00;100207.09;1669282;86;22092;-82
2022/06/03 02:59:55;;;;;;;10.98;10.08;;;;;;;15.36;100.00;100210.59;1670247;85;21971;-82
2022/06/03 03:03:02;;;;;;;10.93;9.68;;;;;;;15.36;100.00;100212.48;1653658;85;21066;-81
2022/06/03 03:05:50;;;;;;;9.55;8.75;;;;;;;15.34;100.00;100212.77;1667349;84;20955;-82
2022/06/03 03:08:56;;;;;;;9.43;8.48;;;;;;;15.32;100.00;100216.28;1656952;86;21133;-78
2022/06/03 03:11:51;;;;;;;9.70;8.85;;;;;;;15.33;100.00;100230.65;1629128;86;21090;-77
2022/06/03 03:14:40;;;;;;;9.68;8.88;;;;;;;15.32;100.00;100216.81;1697697;83;21013;-79
2022/06/03 03:17:54;;;;;;;9.30;8.55;;;;;;;15.32;100.00;100216.81;1702169;83;20952;-78
2022/06/03 03:20:53;;;;;;;8.85;8.15;;;;;;;15.25;100.00;100240.91;1711666;83;20909;-80
2022/06/03 03:23:48;;;;;;;8.28;7.67;;;;;;;15.26;100.00;100230.89;1710027;82;21021;-80
2022/06/03 03:26:40;;;;;;;8.85;7.97;;;;;;;15.24;100.00;100236.59;1684436;85;21912;-80
2022/06/03 03:29:54;;;;;;;7.42;6.90;;;;;;;15.22;100.00;100240.64;1689053;83;20940;-79
2022/06/03 03:32:41;;;;;;;7.90;7.30;;;;;;;15.21;100.00;100245.24;1658651;84;20953;-80
2022/06/03 03:35:38;;;;;;;9.80;7.78;;;;;;;15.20;100.00;100249.59;1703775;83;21061;-79
2022/06/03 03:38:19;;;;;;;8.70;7.80;;;;;;;15.19;100.00;100242.55;1707315;83;21004;-83
2022/06/03 03:41:01;;;;;;;7.12;6.42;;;;;;;15.16;100.00;100247.94;1695799;83;21151;-89
2022/06/03 03:44:02;;;;;;;7.17;6.55;;;;;;;15.15;100.00;100260.42;1656528;86;20971;-88
2022/06/03 03:47:03;;;;;;;7.17;6.58;;;;;;;15.14;100.00;100254.72;1695625;84;20901;-87
2022/06/03 03:49:54;;;;;;;7.42;6.65;;;;;;;15.11;100.00;100243.86;1702563;83;21533;-85
2022/06/03 03:52:50;;;;;;;6.35;5.85;;;;;;;15.11;100.00;100260.11;1708931;83;20945;-85
2022/06/03 03:55:53;;;;;;;8.05;7.45;;;;;;;15.08;100.00;100259.30;1680774;83;21294;-80
2022/06/03 03:58:46;;;;;;;6.92;6.42;;;;;;;15.08;100.00;100266.08;1713641;83;21064;-83
2022/06/03 04:01:31;;;;;;;7.35;6.75;;;;;;;15.09;100.00;100287.21;1685074;85;21023;-83
2022/06/03 04:04:45;;;;;;;6.40;5.90;;;;;;;15.05;100.00;100277.98;1695351;83;21028;-87
2022/06/03 04:07:33;;;;;;;5.78;5.37;;;;;;;15.04;100.00;100295.31;1696368;83;21299;-84
2022/06/03 04:10:40;;;;;;;11.08;8.20;;;;;;;14.97;100.00;100298.25;1683543;85;21168;-83
2022/06/03 04:13:47;;;;;;;6.85;6.08;;;;;;;14.97;100.00;100297.44;1695784;83;20988;-84
2022/06/03 04:16:29;;;;;;;5.62;5.30;;;;;;;14.97;100.00;100295.55;1665099;84;21023;-85
2022/06/03 04:19:23;;;;;;;6.28;5.33;;;;;;;14.96;100.00;100301.25;1708340;83;21112;-85
2022/06/03 04:22:24;;;;;;;6.20;5.42;;;;;;;15.00;100.00;100313.18;1701573;83;21451;-88
2022/06/03 04:25:18;;;;;;;6.17;5.60;;;;;;;15.04;100.00;100316.98;1695742;83;21073;-85
2022/06/03 04:28:23;;;;;;;6.92;6.35;;;;;;;15.08;100.00;100322.97;1697833;83;21069;-86
2022/06/03 04:31:22;;;;;;;4.87;4.55;;;;;;;15.09;100.00;100323.78;1695648;84;20948;-87
2022/06/03 04:34:25;;;;;;;6.08;5.58;;;;;;;15.09;100.00;100330.56;1697880;83;21494;-86
2022/06/03 04:37:14;;;;;;;11.95;5.70;;;;;;;15.06;100.00;100331.89;1713079;83;21101;-81
2022/06/03 04:40:11;;;;;;;6.58;5.17;;;;;;;15.02;100.00;100334.84;1695980;83;21491;-85
2022/06/03 04:43:07;;;;;;;7.67;6.17;;;;;;;15.04;100.00;100325.12;1667253;84;21065;-84
2022/06/03 04:45:57;;;;;;;6.08;5.03;;;;;;;15.08;100.00;100326.22;1684749;85;21098;-82
2022/06/03 04:48:49;;;;;;;5.30;4.83;;;;;;;15.10;100.00;100324.89;1691635;83;21008;-81
2022/06/03 04:51:49;;;;;;;5.85;5.45;;;;;;;15.11;99.56;100348.17;1686266;83;21008;-87
2022/06/03 04:55:04;;;;;;;6.50;5.00;;;;;;;15.10;99.38;100335.72;1708855;80;21106;-80
2022/06/03 04:57:51;;;;;;;;;;;;;;;15.13;98.70;100342.50;1692363;82;20993;-81
2022/06/03 05:00:48;;;;;;;4.70;4.30;;;;;;;15.13;98.49;100347.91;1705094;83;20081;-77
2022/06/03 05:03:46;;;;;;;6.25;5.05;;;;;;;15.12;98.11;100348.45;1696326;83;21100;-75
2022/06/03 05:06:43;;;;;;;9.25;4.90;;;;;;;15.13;98.00;100359.58;1703133;83;21122;-78
2022/06/03 05:09:37;;;;;;;7.90;4.72;;;;;;;15.15;97.79;100373.69;1706945;82;21312;-85
2022/06/03 05:12:43;;;;;;;5.90;4.40;;;;;;;15.18;97.47;100373.69;1670189;82;21034;-82
2022/06/03 05:16:01;;;;;;;6.42;5.83;;;;;;;15.21;97.38;100368.55;1706908;83;20957;-84
2022/06/03 05:18:56;;;;;;;6.60;5.35;;;;;;;15.15;96.39;100384.53;1700751;83;21038;-83
2022/06/03 05:22:03;;;;;;;6.05;5.20;;;;;;;15.14;96.63;100377.47;1695520;83;21083;-86
2022/06/03 05:25:04;;;;;;;6.65;5.33;;;;;;;15.06;96.88;100369.81;1698004;83;21888;-84
2022/06/03 05:28:12;;;;;;;5.10;4.78;;;;;;;15.14;96.84;100382.89;1707301;84;21577;-82
2022/06/03 05:31:17;;;;;;;5.58;5.17;;;;;;;15.20;96.62;100383.17;1684983;83;21044;-81
2022/06/03 05:33:53;;;;;;;5.45;4.95;;;;;;;15.27;95.63;100389.18;1627657;83;21004;-82
2022/06/03 05:36:48;;;;;;;5.40;5.00;;;;;;;15.24;93.93;100397.03;1658331;83;20948;-87
2022/06/03 05:39:33;;;;;;;6.12;5.67;;;;;;;15.24;93.08;100384.30;1694766;83;21793;-83
2022/06/03 05:42:43;;;;;;;6.53;6.03;;;;;;;15.29;93.16;100394.34;1691073;83;21572;-81
2022/06/03 05:45:44;;;;;;;4.97;4.58;;;;;;;15.30;91.98;100388.39;1694257;84;21511;-80
2022/06/03 05:48:38;;;;;;;6.17;4.00;;;;;;;15.30;91.18;100428.48;1697752;83;20948;-81
2022/06/03 05:51:26;;;;;;;5.20;4.80;;;;;;;15.28;90.56;100405.73;1700933;83;21021;-83
2022/06/03 05:54:12;;;;;;;6.08;5.35;;;;;;;15.30;90.09;100421.70;1713188;83;21757;-86
2022/06/03 05:56:57;;;;;;;5.00;4.62;;;;;;;15.27;89.23;100428.48;1712732;83;20987;-84
2022/06/03 05:59:53;;;;;;;4.60;4.30;;;;;;;15.23;88.39;100417.08;1700703;83;21512;-82
2022/06/03 06:02:38;;;;;;;5.72;5.22;;;;;;;15.25;89.10;100417.64;1706761;83;21033;-85
2022/06/03 06:05:25;;;;;;;7.87;4.75;;;;;;;15.32;89.85;100434.47;1613002;85;21608;-86
2022/06/03 06:08:20;;;;;;;4.90;4.60;;;;;;;15.40;88.69;100435.85;1685740;85;21669;-82
2022/06/03 06:11:10;;;;;;;5.70;5.28;;;;;;;15.42;87.15;100430.45;1686159;83;26712;-83
2022/06/03 06:14:26;;;;;;;5.00;4.62;;;;;;;15.39;85.63;100431.00;1685661;83;21545;-82
2022/06/03 06:16:56;;;;;;;5.30;4.17;;;;;;;15.38;85.66;100426.65;1692219;83;21092;-82
2022/06/03 06:19:40;;;;;;;4.37;4.08;;;;;;;15.42;84.71;100441.30;1661402;85;21401;-79
2022/06/03 06:22:23;;;;;;;5.40;4.28;;;;;;;15.47;85.43;100435.09;1665148;84;21824;-73
2022/06/03 06:25:10;;;;;;;5.03;4.73;;;;;;;15.56;85.88;100428.11;1679233;85;20988;-78
2022/06/03 06:28:04;;;;;;;4.70;4.30;;;;;;;15.65;85.62;100441.44;1680052;85;21596;-78
2022/06/03 06:31:04;;;;;;;5.03;4.53;;;;;;;15.70;83.23;100432.78;1676564;84;21034;-80
2022/06/03 06:33:38;;;;;;;4.42;4.03;;;;;;;15.74;82.29;100434.42;1688624;84;21681;-83
2022/06/03 06:36:47;;;;;;;7.85;4.03;;;;;;;15.78;81.55;100440.16;1691501;83;21646;-83
2022/06/03 06:40:01;;;;;;;6.85;4.70;;;;;;;15.83;80.76;100438.25;1690783;83;21038;-83
2022/06/03 06:43:00;;;;;;;5.22;4.55;;;;;;;15.85;78.67;100440.17;1683372;85;20995;-80
2022/06/03 06:45:50;;;;;;;5.25;4.75;;;;;;;15.91;78.73;100417.41;1681050;85;20971;-83
2022/06/03 06:48:31;;;;;;;3.98;3.67;;;;;;;15.96;78.68;100438.31;1685986;83;21019;-81
2022/06/03 06:51:09;;;;;;;6.28;4.40;;;;;;;16.04;78.26;100456.77;1615047;88;21842;-82
2022/06/03 06:54:03;;;;;;;4.50;4.10;;;;;;;16.09;77.85;100433.19;1613862;87;21079;-84
2022/06/03 06:57:03;;;;;;;4.67;4.33;;;;;;;16.20;77.76;100434.56;1645919;87;21076;-85
2022/06/03 06:59:42;;;;;;;9.05;4.58;;;;;;;16.28;77.62;100437.56;1627517;88;20974;-88
2022/06/03 07:02:31;;;;;;;9.70;4.35;;;;;;;16.35;77.37;100437.31;1634859;86;21620;-83
2022/06/03 07:05:06;;;;;;;4.85;4.25;;;;;;;16.39;76.23;100432.97;1638795;86;21262;-79
2022/06/03 07:07:38;;;;;;;4.65;4.25;;;;;;;16.44;76.33;100442.48;1655524;86;21108;-80
2022/06/03 07:10:13;;;;;;;6.78;3.92;;;;;;;16.50;74.66;100441.38;1655399;86;21044;-80
2022/06/03 07:13:13;;;;;;;3.58;3.20;;;;;;;16.55;72.61;100452.25;1634190;86;21016;-78
2022/06/03 07:19:47;;;;;;;3.52;3.22;;;;;;;16.61;72.10;100448.48;1615273;88;21038;-77
2022/06/03 07:22:14;;;;;;;4.50;4.08;;;;;;;16.75;69.03;100448.75;1673935;83;21090;-78
2022/06/03 07:25:04;;;;;;;4.08;3.77;;;;;;;16.76;68.04;100454.47;1572987;87;21012;-76
2022/06/03 07:27:49;;;;;;;3.35;3.12;;;;;;;16.77;69.08;100452.03;1643563;87;21095;-81
2022/06/03 07:30:23;;;;;;;4.90;4.03;;;;;;;16.84;68.54;100473.75;1626794;88;21499;-78
2022/06/03 07:33:03;;;;;;;5.03;3.80;;;;;;;16.87;67.91;100453.39;1650761;85;21178;-75
2022/06/03 07:35:37;;;;;;;3.47;3.00;;;;;;;16.90;67.22;100465.06;1656245;86;21070;-77
2022/06/03 07:38:25;;;;;;;3.15;2.95;;;;;;;16.92;67.21;100452.84;1658524;86;21648;-77
2022/06/03 07:41:16;;;;;;;3.00;2.80;;;;;;;16.94;67.48;100450.66;1677804;85;21432;-79
2022/06/03 07:43:56;;;;;;;2.85;2.58;;;;;;;17.00;67.49;100462.34;1686697;85;21024;-77
2022/06/03 07:46:52;;;;;;;2.60;2.40;;;;;;;17.06;66.17;100454.45;1676975;85;21125;-78
2022/06/03 07:49:24;;;;;;;2.85;2.65;;;;;;;17.16;66.51;100441.39;1685963;85;20972;-78
2022/06/03 07:52:05;;;;;;;4.42;2.83;;;;;;;17.31;65.66;100457.69;1687097;85;20992;-77
2022/06/03 07:54:34;;;;;;;2.95;2.75;;;;;;;17.38;64.21;100466.35;1661859;85;21078;-76
2022/06/03 07:57:07;;;;;;;2.83;2.62;;;;;;;17.44;60.99;100455.73;1671988;85;21607;-78
2022/06/03 07:59:36;;;;;;;6.50;2.60;;;;;;;17.44;61.89;100447.58;1658755;86;21244;-77
2022/06/03 08:02:16;;;;;;;2.92;2.72;;;;;;;17.50;63.23;100449.20;1676749;85;21582;-77
2022/06/03 08:04:43;;;;;;;3.15;2.87;;;;;;;17.61;63.84;100445.91;1661996;85;21313;-79
2022/06/03 08:12:59;;;;;;;3.67;3.08;;;;;;;17.77;63.80;100462.45;1644943;87;21120;-79
2022/06/03 08:15:34;;;;;;;3.30;3.00;;;;;;;17.85;64.03;100463.23;1661156;86;21045;-77
2022/06/03 08:18:02;;;;;;;2.72;2.58;;;;;;;17.90;61.69;100459.67;1689408;85;21068;-79
2022/06/03 08:20:28;;;;;;;3.05;2.85;;;;;;;17.92;61.25;100456.13;1672561;84;21508;-77
2022/06/03 08:22:55;;;;;;;2.80;2.60;;;;;;;17.93;60.85;100456.41;1689207;85;21032;-76
2022/06/03 08:25:27;;;;;;;2.70;2.60;;;;;;;17.93;60.38;100459.12;1672487;85;21558;-77
2022/06/03 08:27:55;;;;;;;2.77;2.58;;;;;;;17.94;61.29;100466.20;1672426;85;20990;-77
2022/06/03 08:30:24;;;;;;;18.67;3.17;;;;;;;17.97;61.72;100465.64;1647702;85;21519;-79
2022/06/03 08:33:01;;;;;;;3.37;3.08;;;;;;;18.01;59.23;100475.69;1672349;85;21097;-79
2022/06/03 08:36:21;;;;;;;2.45;2.25;;;;;;;18.03;59.14;100465.34;1672493;85;22236;-80
2022/06/03 08:38:52;;;;;;;2.52;2.33;;;;;;;18.09;58.06;100471.55;1666466;85;21087;-78
2022/06/03 08:41:27;;;;;;;2.52;2.35;;;;;;;18.18;57.98;100470.68;1676751;84;21052;-78
2022/06/03 08:44:19;;;;;;;2.60;2.35;;;;;;;18.26;57.78;100461.13;1641752;86;21564;-74
2022/06/03 08:46:58;;;;;;;3.42;2.02;;;;;;;18.34;57.27;100473.32;1654006;86;21092;-76
2022/06/03 08:49:29;;;;;;;2.45;2.35;;;;;;;18.44;56.52;100480.07;1637946;86;21067;-78
2022/06/03 08:52:04;;;;;;;2.05;1.90;;;;;;;18.53;56.58;100479.73;1665139;85;21587;-77
2022/06/03 08:54:39;;;;;;;3.35;2.50;;;;;;;18.62;57.10;100473.42;1670555;85;20996;-77
2022/06/03 08:57:15;;;;;;;2.72;2.52;;;;;;;18.71;56.52;100477.72;1674242;85;21545;-75
2022/06/03 08:59:57;;;;;;;2.42;2.22;;;;;;;18.77;56.64;100490.22;1678492;85;20998;-80
2022/06/03 09:02:50;;;;;;;3.33;2.80;;;;;;;18.82;56.97;100479.28;1647046;85;21090;-79
2022/06/03 09:05:27;;;;;;;2.25;2.15;;;;;;;18.91;56.65;100479.47;1642619;86;21123;-80
2022/06/03 09:08:16;;;;;;;2.17;1.98;;;;;;;18.99;55.61;100489.78;1713015;83;21606;-79
2022/06/03 09:11:03;;;;;;;2.33;1.98;;;;;;;19.06;55.27;100487.52;1713213;83;21028;-82
2022/06/03 09:13:53;;;;;;;1.98;1.87;;;;;;;19.11;55.16;100479.30;1711535;83;21499;-84
2022/06/03 09:16:20;;;;;;;1.82;1.72;;;;;;;19.16;55.01;100497.80;1702528;83;21021;-84
2022/06/03 09:18:51;;;;;;;2.50;1.87;;;;;;;19.21;54.07;100497.48;1705726;83;22209;-81
2022/06/03 09:21:28;;;;;;;2.17;1.80;;;;;;;19.24;54.34;100494.98;1712931;82;20980;-77
2022/06/03 09:24:09;;;;;;;3.75;2.10;;;;;;;19.32;54.13;100499.02;1712896;83;21060;-83
2022/06/03 09:26:42;;;;;;;3.67;1.92;;;;;;;19.44;53.12;100491.27;1699629;83;21000;-81
2022/06/03 09:29:11;;;;;;;2.80;1.95;;;;;;;19.53;52.19;100502.63;1711347;83;20997;-85
2022/06/03 09:31:39;;;;;;;7.83;1.82;;;;;;;19.57;52.25;100496.03;1712870;83;21279;-80
2022/06/03 09:34:06;;;;;;;3.00;1.60;;;;;;;19.58;50.52;100483.48;1712842;83;20981;-85
2022/06/03 09:36:33;;;;;;;1.60;1.50;;;;;;;19.65;49.38;100488.60;1701620;83;21044;-78
2022/06/03 09:39:10;;;;;;;1.70;1.60;;;;;;;19.73;49.50;100492.05;1683690;83;20976;-85
2022/06/03 09:41:41;;;;;;;5.65;1.72;;;;;;;19.78;49.23;100498.81;1686984;83;21551;-81
2022/06/03 09:44:10;;;;;;;3.35;1.82;;;;;;;19.82;49.32;100517.59;1697448;83;21281;-82
2022/06/03 09:46:38;;;;;;;1.60;1.50;;;;;;;19.90;49.39;100501.14;1712528;83;21523;-83
2022/06/03 09:49:05;;;;;;;2.45;1.40;;;;;;;19.92;49.04;100499.73;1712986;83;21539;-80
2022/06/03 09:54:34;;;;;;;1.60;1.50;;;;;;;20.06;49.09;100499.01;1713059;83;21089;-79
2022/06/03 09:57:15;;;;;;;1.67;1.57;;;;;;;20.14;48.77;100498.37;1712855;83;21093;-82
2022/06/03 09:59:53;;;;;;;2.85;1.47;;;;;;;20.23;48.71;100498.80;1713247;83;20946;-82
2022/06/03 10:02:19;;;;;;;2.00;1.85;;;;;;;20.34;47.87;100500.84;1708656;83;21561;-79
2022/06/03 10:04:46;;;;;;;6.50;2.67;;;;;;;20.43;47.84;100516.28;1713243;83;21478;-80
2022/06/03 10:07:14;;;;;;;2.47;1.40;;;;;;;20.45;46.79;100511.34;1712853;83;21037;-80
2022/06/03 10:12:56;;;;;;;1.47;1.37;;;;;;;20.50;45.22;100505.00;1678546;85;20973;-78
2022/06/03 10:15:38;;;;;;;1.60;1.15;;;;;;;20.48;45.46;100500.36;1712534;83;21000;-82
2022/06/03 10:18:38;;;;;;;1.87;1.47;;;;;;;20.44;46.38;100497.97;1712916;83;20961;-85
2022/06/03 10:21:11;;;;;;;1.60;1.50;;;;;;;20.51;46.94;100511.28;1702898;82;21060;-82
2022/06/03 10:23:53;;;;;;;2.80;2.60;;;;;;;20.61;46.08;100502.38;1686056;84;21158;-85
2022/06/03 10:26:31;;;;;;;1.80;1.70;;;;;;;20.72;46.06;100499.73;1683405;85;20998;-85
2022/06/03 10:29:01;;;;;;;1.70;1.60;;;;;;;20.83;43.60;100496.28;1702607;83;21320;-91
2022/06/03 10:31:33;;;;;;;1.55;1.45;;;;;;;21.01;44.08;100493.25;1685147;83;21258;-77
2022/06/03 10:34:14;;;;;;;1.35;1.25;;;;;;;21.01;44.08;100493.25;1713283;83;21024;-83
2022/06/03 10:36:46;;;;;;;3.00;1.42;;;;;;;21.22;44.88;100494.56;1711631;83;21304;-83
2022/06/03 10:39:18;;;;;;;2.72;1.67;;;;;;;21.22;44.88;100494.56;1702669;83;20976;-80
2022/06/03 10:41:49;;;;;;;1.40;1.30;;;;;;;21.29;44.31;100490.89;1688611;83;21015;-82
2022/06/03 10:44:21;;;;;;;4.42;1.52;;;;;;;21.36;44.48;100492.66;1710105;83;21045;-78
2022/06/03 10:47:06;;;;;;;2.55;1.50;;;;;;;21.45;42.52;100490.84;1674688;83;21088;-76
2022/06/03 10:49:34;;;;;;;1.60;1.50;;;;;;;21.58;42.57;100496.10;1711199;83;21746;-78
2022/06/03 11:03:25;;;;;;;1.72;1.15;;;;;;;21.79;41.05;100480.87;1712975;83;21643;-83
2022/06/03 11:05:52;;;;;;;1.17;1.07;;;;;;;21.93;41.58;100479.49;1713159;83;28293;-77
2022/06/03 11:08:19;;;;;;;2.65;1.37;;;;;;;22.00;39.05;100515.55;1712990;83;21591;-77
2022/06/03 11:10:53;;;;;;;3.22;1.42;;;;;;;22.00;38.80;100500.48;1712890;83;21012;-85
2022/06/03 11:14:20;;;;;;;4.30;1.07;;;;;;;22.02;39.85;100490.02;1713063;83;21011;-84
2022/06/03 11:17:01;;;;;;;1.12;1.10;;;;;;;22.07;39.84;100481.69;1713106;83;21002;-82
2022/06/03 11:19:32;;;;;;;2.20;1.20;;;;;;;22.11;38.37;100493.66;1712896;82;21041;-81
2022/06/03 11:22:33;;;;;;;4.10;2.02;;;;;;;22.13;38.87;100484.58;1711906;83;20962;-81
2022/06/03 11:25:28;;;;;;;1.00;1.00;;;;;;;22.15;39.45;100490.02;1684583;83;21564;-86
2022/06/03 11:28:06;;;;;;;1.00;1.00;;;;;;;22.24;38.49;100494.77;1711689;83;21084;-86
2022/06/03 11:30:57;;;;;;;1.82;1.72;;;;;;;22.35;38.63;100480.51;1707447;84;21142;-82
2022/06/03 11:33:30;;;;;;;0.93;0.93;;;;;;;22.46;38.55;100487.39;1711457;83;21026;-86
2022/06/03 11:36:05;;;;;;;1.12;1.12;;;;;;;22.59;38.13;100489.83;1715705;83;20923;-81
2022/06/03 11:38:43;;;;;;;4.00;1.32;;;;;;;22.63;37.39;100478.52;1716135;83;21054;-79
2022/06/03 11:41:23;;;;;;;1.30;1.20;;;;;;;22.71;37.77;100479.72;1715673;83;21504;-81
2022/06/03 11:44:10;;;;;;;2.33;1.55;;;;;;;22.77;37.35;100484.78;1716069;83;21842;-79
2022/06/03 11:46:49;;;;;;;5.28;1.15;;;;;;;22.87;35.81;100481.80;1716014;83;21038;-82
2022/06/03 11:49:19;;;;;;;1.25;1.00;;;;;;;22.97;35.88;100482.09;1716895;83;20978;-81
2022/06/03 11:51:47;;;;;;;1.17;1.07;;;;;;;23.00;36.17;100475.42;1686915;83;21457;-85
2022/06/03 11:54:17;;;;;;;1.07;1.07;;;;;;;23.01;36.21;100470.19;1718313;83;21023;-81
2022/06/03 11:56:44;;;;;;;1.30;1.20;;;;;;;23.09;37.67;100471.91;1716854;83;21184;-81
2022/06/03 11:59:22;;;;;;;6.90;2.33;;;;;;;23.18;34.76;100492.79;1716812;83;21469;-75
2022/06/03 12:01:56;;;;;;;1.30;1.20;;;;;;;23.24;33.19;100486.61;1715747;83;20959;-75
2022/06/03 12:04:47;;;;;;;2.55;2.35;;;;;;;23.29;33.83;100470.81;1715703;83;21038;-75
2022/06/03 12:07:41;;;;;;;1.12;1.07;;;;;;;23.33;34.02;100470.43;1709983;83;21130;-76
2022/06/03 12:10:31;;;;;;;1.70;1.00;;;;;;;23.35;33.72;100457.21;1706775;84;21150;-84
2022/06/03 12:13:28;;;;;;;1.20;1.02;;;;;;;23.42;33.88;100465.78;1706043;84;20987;-82
2022/06/03 12:16:11;;;;;;;2.85;2.65;;;;;;;23.48;32.48;100468.42;1706852;84;21006;-83
2022/06/03 12:19:01;;;;;;;2.25;2.10;;;;;;;23.35;33.50;100454.47;1706649;84;21262;-79
2022/06/03 12:21:33;;;;;;;1.35;1.25;;;;;;;23.32;33.96;100455.64;1706502;83;21167;-79
2022/06/03 12:24:33;;;;;;;1.17;1.07;;;;;;;23.42;34.13;100450.69;1707197;83;21776;-88
2022/06/03 12:27:02;;;;;;;1.98;1.25;;;;;;;23.61;34.14;100453.20;1701903;84;21050;-83
2022/06/03 12:29:38;;;;;;;3.30;0.93;;;;;;;23.88;33.02;100463.95;1688526;84;21119;-82
2022/06/03 12:32:25;;;;;;;2.98;1.42;;;;;;;23.99;32.87;100455.41;1686339;85;21063;-83
2022/06/03 12:34:52;;;;;;;1.17;1.07;;;;;;;23.88;32.37;100457.67;1664069;86;21038;-85
2022/06/03 12:37:29;;;;;;;1.40;1.30;;;;;;;23.85;33.54;100454.98;1638800;86;21282;-85
2022/06/03 12:40:02;;;;;;;1.90;1.35;;;;;;;23.94;34.11;100448.13;1663999;86;20951;-81
2022/06/03 12:42:37;;;;;;;1.17;1.17;;;;;;;24.07;34.67;100440.33;1663783;86;21078;-80
2022/06/03 12:45:13;;;;;;;1.80;1.70;;;;;;;24.12;35.29;100441.55;1664468;86;20975;-85
2022/06/03 12:47:49;;;;;;;1.30;1.27;;;;;;;24.21;35.58;100445.14;1682902;83;21093;-79
2022/06/03 12:50:30;;;;;;;1.25;1.15;;;;;;;24.22;35.58;100439.08;1674907;83;21747;-87
2022/06/03 12:53:08;;;;;;;1.90;1.45;;;;;;;24.27;35.82;100442.45;1662254;85;21582;-78
2022/06/03 12:55:36;;;;;;;4.03;1.72;;;;;;;24.29;35.79;100429.77;1659936;86;21017;-77
2022/06/03 12:58:14;;;;;;;2.60;1.72;;;;;;;24.32;35.99;100431.30;1662290;85;21100;-77
2022/06/03 13:00:52;;;;;;;2.40;2.20;;;;;;;24.35;35.89;100440.86;1662208;85;21089;-80
2022/06/03 13:03:30;;;;;;;1.57;1.40;;;;;;;24.35;35.12;100429.05;1662388;85;21254;-79
2022/06/03 13:06:00;;;;;;;2.08;1.02;;;;;;;24.20;34.89;100432.52;1662197;85;20910;-78
2022/06/03 13:09:34;;;;;;;2.45;1.62;;;;;;;24.17;35.71;100419.99;1691039;84;21049;-86
2022/06/03 13:11:26;;;;;;;2.83;1.55;;;;;;;24.21;36.21;100435.52;1687818;84;21050;-78
2022/06/03 13:14:09;;;;;;;3.05;1.47;;;;;;;24.10;35.71;100438.86;1691640;84;21502;-78
2022/06/03 13:16:41;;;;;;;1.50;1.40;;;;;;;24.06;35.29;100431.83;1690828;84;21522;-79
2022/06/03 13:19:23;;;;;;;1.67;1.57;;;;;;;24.14;34.56;100429.64;1691534;84;21091;-79
2022/06/03 13:22:04;;;;;;;1.80;1.70;;;;;;;24.23;34.45;100430.48;1691983;84;21072;-90